createdAt,value
2022-12-13T00:01:51.968Z,100861.22
2022-12-13T00:04:20.319Z,100863.03
2022-12-13T00:06:47.238Z,100863.34
2022-12-13T00:09:15.623Z,100860.84
2022-12-13T00:11:42.803Z,100858.44
2022-12-13T00:14:09.444Z,100857.56
2022-12-13T00:16:36.036Z,100854.25
2022-12-13T00:19:02.783Z,100855.28
2022-12-13T00:21:31.472Z,100849.50
2022-12-13T00:23:59.111Z,100854.78
2022-12-13T00:26:28.827Z,100847.34
2022-12-13T00:28:56.575Z,100842.72
2022-12-13T00:34:12.149Z,100831.56
2022-12-13T00:36:38.568Z,100835.22
2022-12-13T00:39:05.067Z,100832.22
2022-12-13T00:41:33.839Z,100828.28
2022-12-13T00:44:01.362Z,100824.81
2022-12-13T00:46:28.868Z,100829.44
2022-12-13T00:48:57.833Z,100826.28
2022-12-13T00:51:25.555Z,100829.88
2022-12-13T00:53:52.288Z,100822.22
2022-12-13T00:56:22.132Z,100822.22
2022-12-13T00:58:52.073Z,100815.97
2022-12-13T01:01:21.367Z,100819.13
2022-12-13T01:03:48.259Z,100815.97
2022-12-13T01:06:19.584Z,100814.44
2022-12-13T01:08:46.736Z,100813.78
2022-12-13T01:11:14.457Z,100813.94
2022-12-13T01:13:41.312Z,100816.41
2022-12-13T01:16:10.232Z,100813.25
2022-12-13T01:18:37.264Z,100812.09
2022-12-13T01:21:10.845Z,100821.34
2022-12-13T01:23:37.907Z,100820.16
2022-12-13T01:26:06.495Z,100822.94
2022-12-13T01:28:33.378Z,100806.25
2022-12-13T01:31:02.400Z,100813.50
2022-12-13T01:33:30.091Z,100810.63
2022-12-13T01:35:57.009Z,100811.47
2022-12-13T01:38:26.449Z,100818.94
2022-12-13T01:40:59.419Z,100816.06
2022-12-13T01:43:54.355Z,100820.69
2022-12-13T01:46:20.869Z,100811.78
2022-12-13T01:48:55.429Z,100816.38
2022-12-13T01:51:27.596Z,100817.66
2022-12-13T01:53:59.766Z,100825.13
2022-12-13T01:56:33.720Z,100823.31
2022-12-13T01:59:02.026Z,100824.44
2022-12-13T02:01:29.061Z,100823.63
2022-12-13T02:03:55.661Z,100817.38
2022-12-13T02:06:34.786Z,100816.38
2022-12-13T02:09:03.607Z,100819.63
2022-12-13T02:11:30.366Z,100824.22
2022-12-13T02:13:56.963Z,100822.13
2022-12-13T02:16:42.150Z,100827.94
2022-12-13T02:19:45.955Z,100825.81
2022-12-13T02:22:27.481Z,100815.31
2022-12-13T02:25:22.566Z,100816.81
2022-12-13T02:28:48.140Z,100812.53
2022-12-13T02:31:26.083Z,100812.84
2022-12-13T02:34:05.423Z,100807.25
2022-12-13T02:36:57.230Z,100805.06
2022-12-13T02:39:31.141Z,100805.50
2022-12-13T02:42:04.118Z,100799.09
2022-12-13T02:44:37.806Z,100787.41
2022-12-13T02:47:12.772Z,100782.44
2022-12-13T02:49:53.788Z,100786.00
2022-12-13T02:52:24.962Z,100789.47
2022-12-13T02:54:54.800Z,100792.53
2022-12-13T02:57:34.589Z,100784.63
2022-12-13T03:00:15.534Z,100790.97
2022-12-13T03:03:05.747Z,100798.75
2022-12-13T03:05:56.921Z,100788.84
2022-12-13T03:08:29.794Z,100786.72
2022-12-13T03:11:05.515Z,100798.13
2022-12-13T03:13:38.137Z,100790.34
2022-12-13T03:16:14.629Z,100788.56
2022-12-13T03:18:51.715Z,100785.06
2022-12-13T03:21:18.534Z,100777.63
2022-12-13T03:23:46.865Z,100785.56
2022-12-13T03:26:20.974Z,100776.13
2022-12-13T03:28:48.145Z,100772.19
2022-12-13T03:31:14.806Z,100774.41
2022-12-13T03:33:41.290Z,100782.00
2022-12-13T03:36:09.209Z,100772.94
2022-12-13T03:38:36.224Z,100780.56
2022-12-13T03:41:06.998Z,100783.94
2022-12-13T03:43:33.672Z,100778.50
2022-12-13T03:46:01.889Z,100770.38
2022-12-13T03:48:28.438Z,100765.41
2022-12-13T03:50:55.476Z,100779.41
2022-12-13T03:53:33.592Z,100773.84
2022-12-13T03:56:04.938Z,100777.41
2022-12-13T03:58:36.543Z,100782.06
2022-12-13T04:01:12.663Z,100787.19
2022-12-13T04:03:40.945Z,100786.66
2022-12-13T04:06:08.679Z,100783.06
2022-12-13T04:08:36.834Z,100791.44
2022-12-13T04:11:23.950Z,100784.13
2022-12-13T04:13:50.838Z,100784.56
2022-12-13T04:16:17.435Z,100790.38
2022-12-13T04:18:43.994Z,100784.25
2022-12-13T04:21:10.758Z,100791.88
2022-12-13T04:23:37.357Z,100787.59
2022-12-13T04:26:03.828Z,100784.97
2022-12-13T04:28:30.238Z,100786.97
2022-12-13T04:30:56.723Z,100783.56
2022-12-13T04:33:23.617Z,100780.13
2022-12-13T04:35:50.899Z,100789.38
2022-12-13T04:38:18.226Z,100781.09
2022-12-13T04:40:44.909Z,100781.59
2022-12-13T04:43:11.450Z,100776.78
2022-12-13T04:45:37.900Z,100771.66
2022-12-13T04:48:05.214Z,100769.88
2022-12-13T04:50:32.611Z,100767.06
2022-12-13T04:52:59.090Z,100762.63
2022-12-13T04:55:25.835Z,100768.09
2022-12-13T04:57:52.515Z,100769.94
2022-12-13T05:00:21.127Z,100763.63
2022-12-13T05:02:48.025Z,100768.78
2022-12-13T05:05:15.059Z,100764.50
2022-12-13T05:07:42.571Z,100765.06
2022-12-13T05:10:10.805Z,100767.06
2022-12-13T05:12:37.265Z,100763.16
2022-12-13T05:15:05.124Z,100765.94
2022-12-13T05:17:31.750Z,100755.28
2022-12-13T05:19:58.228Z,100753.44
2022-12-13T05:22:24.917Z,100751.47
2022-12-13T05:24:51.394Z,100758.06
2022-12-13T05:27:24.526Z,100755.44
2022-12-13T05:30:04.292Z,100760.88
2022-12-13T05:32:43.348Z,100747.50
2022-12-13T05:35:22.767Z,100750.66
2022-12-13T05:37:54.768Z,100749.34
2022-12-13T05:40:23.270Z,100747.00
2022-12-13T05:42:49.839Z,100745.00
2022-12-13T05:45:18.635Z,100748.28
2022-12-13T05:47:45.801Z,100751.06
2022-12-13T05:50:13.511Z,100751.56
2022-12-13T05:52:40.286Z,100748.28
2022-12-13T05:55:06.942Z,100743.66
2022-12-13T05:57:34.083Z,100751.13
2022-12-13T06:00:00.932Z,100750.16
2022-12-13T06:02:28.481Z,100751.28
2022-12-13T06:04:55.152Z,100742.31
2022-12-13T06:07:21.570Z,100750.72
2022-12-13T06:09:48.381Z,100747.56
2022-12-13T06:12:32.493Z,100743.19
2022-12-13T06:15:00.962Z,100749.47
2022-12-13T06:17:36.097Z,100753.13
2022-12-13T06:20:23.186Z,100744.72
2022-12-13T06:22:50.674Z,100743.94
2022-12-13T06:25:31.092Z,100739.84
2022-12-13T06:28:01.193Z,100740.16
2022-12-13T06:30:29.683Z,100734.66
2022-12-13T06:32:56.895Z,100735.81
2022-12-13T06:35:28.288Z,100736.78
2022-12-13T06:38:00.917Z,100743.19
2022-12-13T06:40:32.349Z,100744.03
2022-12-13T06:42:58.808Z,100739.88
2022-12-13T06:45:25.812Z,100738.09
2022-12-13T06:47:52.700Z,100741.03
2022-12-13T06:50:19.401Z,100741.19
2022-12-13T06:52:46.800Z,100752.25
2022-12-13T06:55:13.691Z,100754.91
2022-12-13T06:57:40.793Z,100757.91
2022-12-13T07:00:08.468Z,100750.34
2022-12-13T07:02:35.080Z,100758.94
2022-12-13T07:05:04.261Z,100762.09
2022-12-13T07:07:30.933Z,100760.44
2022-12-13T07:09:57.392Z,100766.34
2022-12-13T07:12:24.009Z,100771.09
2022-12-13T07:14:52.223Z,100769.44
2022-12-13T07:17:32.037Z,100769.13
2022-12-13T07:20:00.951Z,100771.41
2022-12-13T07:22:27.828Z,100772.94
2022-12-13T07:24:54.264Z,100778.41
2022-12-13T07:27:20.901Z,100774.78
2022-12-13T07:29:47.370Z,100780.22
2022-12-13T07:32:14.605Z,100779.09
2022-12-13T07:34:41.740Z,100778.94
2022-12-13T07:37:09.251Z,100779.16
2022-12-13T07:40:02.704Z,100787.13
2022-12-13T07:42:30.193Z,100778.56
2022-12-13T07:44:56.634Z,100778.94
2022-12-13T07:47:23.333Z,100778.41
2022-12-13T07:49:50.027Z,100794.59
2022-12-13T07:52:16.692Z,100794.28
2022-12-13T07:54:43.821Z,100791.03
2022-12-13T07:57:10.255Z,100796.47
2022-12-13T07:59:36.722Z,100799.47
2022-12-13T08:02:03.315Z,100796.69
2022-12-13T08:04:29.871Z,100786.09
2022-12-13T08:07:11.423Z,100791.38
2022-12-13T08:09:38.125Z,100795.69
2022-12-13T08:12:05.348Z,100796.81
2022-12-13T08:14:32.093Z,100803.13
2022-12-13T08:16:58.545Z,100793.22
2022-12-13T08:19:25.246Z,100800.69
2022-12-13T08:21:55.587Z,100799.88
2022-12-13T08:24:28.550Z,100800.69
2022-12-13T08:27:00.766Z,100805.16
2022-12-13T08:29:34.371Z,100797.22
2022-12-13T08:32:10.986Z,100804.03
2022-12-13T08:34:37.965Z,100794.22
2022-12-13T08:37:05.110Z,100803.97
2022-12-13T08:39:35.300Z,100797.38
2022-12-13T08:42:17.184Z,100804.22
2022-12-13T08:44:46.822Z,100800.25
2022-12-13T08:47:22.953Z,100791.25
2022-12-13T08:50:01.891Z,100783.63
2022-12-13T08:52:30.211Z,100786.97
2022-12-13T08:54:56.603Z,100787.97
2022-12-13T08:57:23.046Z,100790.63
2022-12-13T08:59:49.563Z,100789.00
2022-12-13T09:02:16.681Z,100788.50
2022-12-13T09:04:44.491Z,100801.56
2022-12-13T09:07:10.984Z,100791.19
2022-12-13T09:09:37.732Z,100796.81
2022-12-13T09:12:10.348Z,100786.06
2022-12-13T09:14:38.225Z,100786.88
2022-12-13T09:17:23.723Z,100789.03
2022-12-13T09:19:57.811Z,100796.03
2022-12-13T09:22:33.060Z,100799.66
2022-12-13T09:25:03.883Z,100798.69
2022-12-13T09:27:39.690Z,100795.84
2022-12-13T09:30:08.526Z,100798.00
2022-12-13T09:32:34.973Z,100792.22
2022-12-13T09:35:01.868Z,100788.94
2022-12-13T09:37:29.690Z,100789.53
2022-12-13T09:39:56.294Z,100796.47
2022-12-13T09:42:30.660Z,100787.06
2022-12-13T09:45:22.284Z,100797.97
2022-12-13T09:47:51.382Z,100800.78
2022-12-13T09:50:28.726Z,100800.94
2022-12-13T09:53:11.928Z,100788.66
2022-12-13T09:55:49.815Z,100795.44
2022-12-13T09:58:31.749Z,100785.63
2022-12-13T10:00:59.229Z,100787.16
2022-12-13T10:03:26.750Z,100792.94
2022-12-13T10:05:58.931Z,100783.91
2022-12-13T10:08:35.249Z,100785.28
2022-12-13T10:11:03.289Z,100781.75
2022-12-13T10:13:42.152Z,100785.69
2022-12-13T10:16:23.780Z,100781.53
2022-12-13T10:18:51.170Z,100781.72
2022-12-13T10:21:27.660Z,100783.66
2022-12-13T10:26:41.110Z,100774.47
2022-12-13T10:29:08.555Z,100776.94
2022-12-13T10:31:48.060Z,100784.41
2022-12-13T10:34:21.475Z,100783.72
2022-12-13T10:36:48.599Z,100782.81
2022-12-13T10:39:37.039Z,100784.72
2022-12-13T10:42:06.075Z,100777.94
2022-12-13T10:44:32.510Z,100778.78
2022-12-13T10:47:17.057Z,100771.44
2022-12-13T10:49:59.218Z,100773.22
2022-12-13T10:52:33.261Z,100768.22
2022-12-13T10:55:23.223Z,100761.53
2022-12-13T10:57:53.502Z,100760.59
2022-12-13T11:00:44.953Z,100755.09
2022-12-13T11:03:55.823Z,100749.97
2022-12-13T11:06:43.236Z,100749.88
2022-12-13T11:09:28.226Z,100746.22
2022-12-13T11:11:58.715Z,100745.69
2022-12-13T11:14:31.796Z,100738.00
2022-12-13T11:17:19.051Z,100735.63
2022-12-13T11:19:49.179Z,100734.63
2022-12-13T11:22:28.102Z,100728.56
2022-12-13T11:25:05.881Z,100726.38
2022-12-13T11:27:47.981Z,100722.72
2022-12-13T11:30:37.676Z,100716.06
2022-12-13T11:33:22.493Z,100715.94
2022-12-13T11:36:04.386Z,100705.78
2022-12-13T11:38:42.309Z,100710.34
2022-12-13T11:41:32.095Z,100699.91
2022-12-13T11:44:10.210Z,100693.13
2022-12-13T11:46:53.338Z,100711.84
2022-12-13T11:49:42.302Z,100700.84
2022-12-13T11:52:19.143Z,100701.72
2022-12-13T11:55:00.553Z,100702.72
2022-12-13T11:57:46.693Z,100706.56
2022-12-13T12:00:34.322Z,100699.69
2022-12-13T12:03:15.739Z,100690.81
2022-12-13T12:05:48.063Z,100685.94
2022-12-13T12:08:43.480Z,100679.47
2022-12-13T12:11:15.062Z,100669.69
2022-12-13T12:13:51.654Z,100675.88
2022-12-13T12:16:31.736Z,100674.88
2022-12-13T12:19:01.338Z,100668.78
2022-12-13T12:22:13.326Z,100662.28
2022-12-13T12:24:39.128Z,100668.03
2022-12-13T12:27:24.440Z,100661.91
2022-12-13T12:29:50.894Z,100656.91
2022-12-13T12:32:26.764Z,100657.22
2022-12-13T12:34:53.393Z,100654.16
2022-12-13T12:37:30.684Z,100662.41
2022-12-13T12:40:18.976Z,100650.75
2022-12-13T12:43:15.789Z,100656.38
2022-12-13T12:46:20.558Z,100658.66
2022-12-13T12:49:12.287Z,100662.16
2022-12-13T12:51:41.659Z,100651.94
2022-12-13T12:54:33.051Z,100656.25
2022-12-13T12:57:15.614Z,100654.22
2022-12-13T13:00:04.104Z,100646.47
2022-12-13T13:02:45.012Z,100651.00
2022-12-13T13:05:23.659Z,100647.09
2022-12-13T13:07:56.629Z,100640.53
2022-12-13T13:10:26.075Z,100648.09
2022-12-13T13:13:11.909Z,100642.84
2022-12-13T13:15:39.605Z,100638.16
2022-12-13T13:18:45.545Z,100641.25
2022-12-13T13:21:32.933Z,100643.31
2022-12-13T13:24:08.498Z,100636.31
2022-12-13T13:26:42.589Z,100634.47
2022-12-13T13:29:27.694Z,100637.50
2022-12-13T13:32:12.813Z,100637.06
2022-12-13T13:35:28.738Z,100643.44
2022-12-13T13:37:56.193Z,100643.81
2022-12-13T13:40:31.558Z,100652.00
2022-12-13T13:43:10.516Z,100647.06
2022-12-13T13:45:49.594Z,100644.34
2022-12-13T13:48:19.367Z,100656.75
2022-12-13T13:51:21.694Z,100652.38
2022-12-13T13:54:16.034Z,100663.78
2022-12-13T13:57:14.867Z,100657.00
2022-12-13T14:00:10.065Z,100651.06
2022-12-13T14:03:22.504Z,100641.78
2022-12-13T14:06:27.238Z,100646.44
2022-12-13T14:08:56.519Z,100643.50
2022-12-13T14:11:52.822Z,100647.13
2022-12-13T14:15:01.500Z,100640.47
2022-12-13T14:18:12.379Z,100639.44
2022-12-13T14:20:45.064Z,100635.72
2022-12-13T14:23:33.643Z,100635.09
2022-12-13T14:26:23.659Z,100639.97
2022-12-13T14:28:56.665Z,100638.06
2022-12-13T14:31:28.302Z,100638.19
2022-12-13T14:33:57.683Z,100643.50
2022-12-13T14:36:32.141Z,100653.91
2022-12-13T14:39:01.270Z,100653.63
2022-12-13T14:41:27.916Z,100655.84
2022-12-13T14:43:54.381Z,100652.72
2022-12-13T14:46:21.212Z,100659.06
2022-12-13T14:48:53.700Z,100665.03
2022-12-13T14:51:33.548Z,100655.59
2022-12-13T14:54:02.447Z,100655.31
2022-12-13T14:56:29.456Z,100653.84
2022-12-13T14:59:01.503Z,100655.63
2022-12-13T15:01:32.564Z,100653.50
2022-12-13T15:04:18.517Z,100664.44
2022-12-13T15:06:48.520Z,100664.16
2022-12-13T15:09:16.725Z,100662.25
2022-12-13T15:11:45.159Z,100657.28
2022-12-13T15:14:20.547Z,100651.50
2022-12-13T15:16:53.232Z,100649.22
2022-12-13T15:19:30.954Z,100649.81
2022-12-13T15:22:14.690Z,100651.53
2022-12-13T15:24:49.000Z,100646.13
2022-12-13T15:27:26.768Z,100645.31
2022-12-13T15:29:54.421Z,100652.47
2022-12-13T15:32:25.089Z,100651.59
2022-12-13T15:34:51.946Z,100650.69
2022-12-13T15:37:29.451Z,100645.09
2022-12-13T15:40:00.761Z,100651.41
2022-12-13T15:42:35.352Z,100647.50
2022-12-13T15:45:06.233Z,100645.38
2022-12-13T15:47:33.427Z,100641.00
2022-12-13T15:50:02.503Z,100638.88
2022-12-13T15:52:39.083Z,100643.03
2022-12-13T15:55:05.474Z,100639.28
2022-12-13T15:57:47.953Z,100630.88
2022-12-13T16:00:17.363Z,100625.63
2022-12-13T16:02:53.240Z,100633.03
2022-12-13T16:05:30.205Z,100625.78
2022-12-13T16:08:00.348Z,100628.66
2022-12-13T16:10:47.114Z,100629.47
2022-12-13T16:13:26.553Z,100627.97
2022-12-13T16:16:00.325Z,100618.72
2022-12-13T16:18:50.905Z,100621.72
2022-12-13T16:21:17.342Z,100616.13
2022-12-13T16:23:48.818Z,100613.66
2022-12-13T16:26:22.244Z,100613.66
2022-12-13T16:28:49.095Z,100603.28
2022-12-13T16:31:24.079Z,100609.56
2022-12-13T16:33:51.498Z,100601.16
2022-12-13T16:36:18.294Z,100598.66
2022-12-13T16:38:44.791Z,100594.72
2022-12-13T16:41:11.575Z,100602.22
2022-12-13T16:43:46.427Z,100597.25
2022-12-13T16:47:15.154Z,100603.53
2022-12-13T16:49:14.924Z,100601.25
2022-12-13T16:51:46.482Z,100599.13
2022-12-13T16:54:14.934Z,100593.72
2022-12-13T16:56:41.543Z,100593.19
2022-12-13T16:59:12.642Z,100598.50
2022-12-13T17:01:39.260Z,100596.19
2022-12-13T17:04:13.936Z,100598.00
2022-12-13T17:06:45.610Z,100599.34
2022-12-13T17:09:12.145Z,100591.56
2022-12-13T17:11:38.593Z,100587.91
2022-12-13T17:14:05.822Z,100593.03
2022-12-13T17:16:32.469Z,100591.75
2022-12-13T17:18:58.951Z,100593.06
2022-12-13T17:21:26.387Z,100592.47
2022-12-13T17:24:00.669Z,100582.75
2022-12-13T17:26:29.013Z,100581.91
2022-12-13T17:28:55.868Z,100585.75
2022-12-13T17:31:22.469Z,100574.50
2022-12-13T17:33:49.650Z,100580.13
2022-12-13T17:36:17.274Z,100577.84
2022-12-13T17:38:45.646Z,100584.34
2022-12-13T17:41:13.514Z,100581.41
2022-12-13T17:43:41.063Z,100582.25
2022-12-13T17:46:13.226Z,100589.19
2022-12-13T17:48:41.374Z,100581.59
2022-12-13T17:51:09.819Z,100586.91
2022-12-13T17:53:38.165Z,100590.22
2022-12-13T17:56:07.703Z,100596.97
2022-12-13T17:58:34.662Z,100595.19
2022-12-13T18:01:30.349Z,100589.03
2022-12-13T18:03:57.271Z,100584.94
2022-12-13T18:06:25.723Z,100573.69
2022-12-13T18:08:52.499Z,100579.31
2022-12-13T18:11:36.161Z,100573.88
2022-12-13T18:14:07.887Z,100579.66
2022-12-13T18:16:38.226Z,100587.13
2022-12-13T18:19:11.758Z,100580.88
2022-12-13T18:21:38.573Z,100585.63
2022-12-13T18:24:07.895Z,100580.50
2022-12-13T18:26:34.640Z,100578.88
2022-12-13T18:29:01.447Z,100580.03
2022-12-13T18:31:28.301Z,100576.88
2022-12-13T18:33:55.650Z,100575.22
2022-12-13T18:36:24.793Z,100572.78
2022-12-13T18:38:51.519Z,100567.47
2022-12-13T18:41:24.526Z,100560.38
2022-12-13T18:44:04.448Z,100565.00
2022-12-13T18:46:33.201Z,100570.63
2022-12-13T18:48:59.775Z,100559.41
2022-12-13T18:51:27.259Z,100561.88
2022-12-13T18:53:55.806Z,100555.56
2022-12-13T18:56:23.554Z,100562.69
2022-12-13T18:58:50.679Z,100561.22
2022-12-13T19:01:18.722Z,100557.25
2022-12-13T19:03:48.209Z,100553.44
2022-12-13T19:06:21.315Z,100549.16
2022-12-13T19:08:49.928Z,100547.50
2022-12-13T19:11:17.613Z,100551.31
2022-12-13T19:13:44.704Z,100553.09
2022-12-13T19:16:14.417Z,100552.63
2022-12-13T19:18:41.308Z,100547.50
2022-12-13T19:21:08.970Z,100541.88
2022-12-13T19:23:35.888Z,100545.03
2022-12-13T19:26:08.840Z,100538.44
2022-12-13T19:28:36.398Z,100535.13
2022-12-13T19:31:04.809Z,100534.44
2022-12-13T19:33:32.384Z,100541.88
2022-12-13T19:35:59.179Z,100529.69
2022-12-13T19:38:25.869Z,100538.91
2022-12-13T19:40:52.660Z,100533.63
2022-12-13T19:43:21.227Z,100533.97
2022-12-13T19:45:49.402Z,100529.84
2022-12-13T19:48:16.283Z,100531.16
2022-12-13T19:50:44.170Z,100532.31
2022-12-13T19:53:10.657Z,100518.13
2022-12-13T19:55:42.770Z,100518.59
2022-12-13T19:58:09.246Z,100516.78
2022-12-13T20:00:35.748Z,100511.34
2022-12-13T20:03:04.121Z,100508.84
2022-12-13T20:05:31.013Z,100510.03
2022-12-13T20:07:57.948Z,100504.75
2022-12-13T20:10:25.556Z,100498.13
2022-12-13T20:12:52.297Z,100492.84
2022-12-13T20:15:18.947Z,100493.16
2022-12-13T20:17:45.375Z,100504.88
2022-12-13T20:20:11.948Z,100487.38
2022-12-13T20:22:38.399Z,100486.38
2022-12-13T20:25:06.950Z,100488.72
2022-12-13T20:27:33.619Z,100487.06
2022-12-13T20:30:00.221Z,100485.56
2022-12-13T20:32:26.685Z,100479.59
2022-12-13T20:34:55.138Z,100482.94
2022-12-13T20:37:23.955Z,100477.28
2022-12-13T20:39:50.875Z,100482.25
2022-12-13T20:42:17.432Z,100475.84
2022-12-13T20:44:43.900Z,100468.56
2022-12-13T20:47:11.002Z,100471.19
2022-12-13T20:49:37.580Z,100457.81
2022-12-13T20:52:04.318Z,100455.66
2022-12-13T20:54:30.875Z,100458.97
2022-12-13T20:56:57.404Z,100460.78
2022-12-13T20:59:24.029Z,100447.41
2022-12-13T21:01:50.875Z,100449.88
2022-12-13T21:04:20.395Z,100455.81
2022-12-13T21:06:47.046Z,100456.34
2022-12-13T21:09:13.638Z,100454.69
2022-12-13T21:11:46.701Z,100450.53
2022-12-13T21:14:20.809Z,100450.03
2022-12-13T21:17:05.344Z,100437.84
2022-12-13T21:19:39.084Z,100436.34
2022-12-13T21:22:06.964Z,100433.69
2022-12-13T21:24:33.474Z,100436.81
2022-12-13T21:27:00.171Z,100428.25
2022-12-13T21:29:27.395Z,100427.91
2022-12-13T21:31:54.688Z,100429.25
2022-12-13T21:34:22.473Z,100428.41
2022-12-13T21:36:52.382Z,100425.59
2022-12-13T21:39:22.760Z,100430.41
2022-12-13T21:41:49.895Z,100425.13
2022-12-13T21:44:17.804Z,100423.47
2022-12-13T21:49:32.079Z,100415.38
2022-12-13T21:51:58.574Z,100425.63
2022-12-13T21:54:25.110Z,100421.84
2022-12-13T21:57:10.340Z,100420.69
2022-12-13T21:59:36.842Z,100418.38
2022-12-13T22:02:22.473Z,100412.59
2022-12-13T22:04:55.681Z,100412.28
2022-12-13T22:07:26.549Z,100405.50
2022-12-13T22:09:54.221Z,100402.19
2022-12-13T22:12:32.431Z,100404.34
2022-12-13T22:14:59.181Z,100404.19
2022-12-13T22:17:33.085Z,100394.28
2022-12-13T22:20:02.748Z,100402.38
2022-12-13T22:22:30.761Z,100396.91
2022-12-13T22:24:57.371Z,100390.28
2022-12-13T22:27:25.065Z,100383.88
2022-12-13T22:29:52.684Z,100387.31
2022-12-13T22:32:20.171Z,100387.81
2022-12-13T22:34:46.863Z,100390.81
2022-12-13T22:37:13.447Z,100389.16
2022-12-13T22:39:39.893Z,100382.56
2022-12-13T22:42:06.380Z,100384.03
2022-12-13T22:44:32.836Z,100386.03
2022-12-13T22:47:00.626Z,100383.22
2022-12-13T22:49:27.341Z,100376.97
2022-12-13T22:51:53.803Z,100375.78
2022-12-13T22:54:20.772Z,100372.66
2022-12-13T22:56:49.973Z,100379.09
2022-12-13T22:59:17.249Z,100382.06
2022-12-13T23:01:47.043Z,100374.97
2022-12-13T23:04:15.455Z,100374.50
2022-12-13T23:06:42.194Z,100372.66
2022-12-13T23:09:13.145Z,100365.41
2022-12-13T23:12:03.393Z,100366.22
2022-12-13T23:14:54.577Z,100355.66
2022-12-13T23:17:21.240Z,100360.13
2022-12-13T23:19:50.078Z,100361.44
2022-12-13T23:22:25.070Z,100354.03
2022-12-13T23:24:52.724Z,100345.44
2022-12-13T23:27:23.591Z,100352.34
2022-12-13T23:29:50.113Z,100365.41
2022-12-13T23:32:16.572Z,100348.56
2022-12-13T23:34:43.037Z,100348.41
2022-12-13T23:37:09.442Z,100350.72
2022-12-13T23:39:35.900Z,100346.91
2022-12-13T23:42:03.357Z,100339.31
2022-12-13T23:44:29.811Z,100337.16
2022-12-13T23:46:56.366Z,100333.06
2022-12-13T23:49:22.843Z,100338.19
2022-12-13T23:51:49.710Z,100331.72
2022-12-13T23:54:19.562Z,100328.91
2022-12-13T23:56:47.365Z,100335.88
2022-12-13T23:59:14.454Z,100334.19
